createdAt,value
2019-03-22T00:02:21.300Z,18.57
2019-03-22T00:05:25.179Z,17.07
2019-03-22T00:08:29.040Z,17.52
2019-03-22T00:11:32.956Z,17.05
2019-03-22T00:14:37.204Z,18.70
2019-03-22T00:17:41.084Z,19.23
2019-03-22T00:20:44.863Z,18.05
2019-03-22T00:23:48.699Z,18.80
2019-03-22T00:26:52.412Z,18.23
2019-03-22T00:29:56.256Z,17.87
2019-03-22T00:33:00.033Z,19.98
2019-03-22T00:36:03.738Z,18.62
2019-03-22T00:39:07.445Z,18.05
2019-03-22T00:42:11.153Z,17.07
2019-03-22T00:45:14.955Z,17.90
2019-03-22T00:48:18.815Z,20.20
2019-03-22T00:51:22.509Z,16.87
2019-03-22T00:54:26.204Z,17.63
2019-03-22T00:57:29.992Z,16.07
2019-03-22T01:00:33.855Z,16.82
2019-03-22T01:03:37.611Z,18.05
2019-03-22T01:06:41.472Z,17.73
2019-03-22T01:09:45.128Z,19.25
2019-03-22T01:12:48.842Z,21.07
2019-03-22T01:15:52.647Z,20.55
2019-03-22T01:18:56.456Z,18.05
2019-03-22T01:22:00.195Z,19.17
2019-03-22T01:25:04.636Z,21.20
2019-03-22T01:28:08.284Z,20.30
2019-03-22T01:31:12.143Z,19.70
2019-03-22T01:34:15.807Z,18.80
2019-03-22T01:37:19.656Z,17.77
2019-03-22T01:40:23.571Z,16.93
2019-03-22T01:43:27.240Z,16.15
2019-03-22T01:46:30.959Z,19.37
2019-03-22T01:49:34.654Z,18.73
2019-03-22T01:52:39.116Z,19.77
2019-03-22T01:55:42.820Z,19.27
2019-03-22T01:58:46.498Z,19.15
2019-03-22T02:01:50.245Z,18.90
2019-03-22T02:04:54.036Z,19.65
2019-03-22T02:07:57.766Z,17.75
2019-03-22T02:11:01.356Z,21.35
2019-03-22T02:14:05.016Z,19.98
2019-03-22T02:17:08.743Z,21.90
2019-03-22T02:20:13.472Z,21.02
2019-03-22T02:23:17.377Z,20.92
2019-03-22T02:26:21.132Z,21.05
2019-03-22T02:29:24.892Z,20.75
2019-03-22T02:32:28.715Z,20.75
2019-03-22T02:35:32.444Z,20.43
2019-03-22T02:38:36.221Z,20.15
2019-03-22T02:41:40.065Z,22.25
2019-03-22T02:44:43.830Z,19.57
2019-03-22T02:47:47.555Z,20.95
2019-03-22T02:50:51.277Z,19.52
2019-03-22T02:53:55.187Z,19.12
2019-03-22T02:56:58.976Z,19.67
2019-03-22T03:00:03.015Z,19.80
2019-03-22T03:03:06.901Z,23.67
2019-03-22T03:06:10.647Z,22.37
2019-03-22T03:09:56.665Z,23.35
2019-03-22T03:13:00.405Z,23.25
2019-03-22T03:16:04.344Z,24.63
2019-03-22T03:19:08.145Z,26.05
2019-03-22T03:22:11.853Z,24.55
2019-03-22T03:25:15.864Z,24.30
2019-03-22T03:28:19.567Z,23.73
2019-03-22T03:31:23.518Z,23.77
2019-03-22T03:34:27.200Z,25.95
2019-03-22T03:37:30.896Z,23.85
2019-03-22T03:40:34.637Z,23.77
2019-03-22T03:43:38.313Z,24.15
2019-03-22T03:46:42.018Z,24.98
2019-03-22T03:49:45.724Z,25.45
2019-03-22T03:52:49.433Z,25.72
2019-03-22T03:55:53.211Z,26.07
2019-03-22T03:58:56.880Z,25.62
2019-03-22T04:02:00.696Z,25.40
2019-03-22T04:05:04.495Z,25.50
2019-03-22T04:08:08.204Z,25.65
2019-03-22T04:11:12.057Z,25.02
2019-03-22T04:14:15.828Z,26.00
2019-03-22T04:17:30.684Z,24.75
2019-03-22T04:20:34.304Z,25.43
2019-03-22T04:23:37.993Z,26.40
2019-03-22T04:26:41.818Z,25.45
2019-03-22T04:29:45.516Z,24.65
2019-03-22T04:32:49.333Z,25.08
2019-03-22T04:35:53.141Z,25.88
2019-03-22T04:38:56.936Z,25.32
2019-03-22T04:42:00.764Z,24.85
2019-03-22T04:45:05.093Z,24.67
2019-03-22T04:48:17.703Z,26.40
2019-03-22T04:51:22.360Z,25.55
2019-03-22T04:54:27.532Z,24.55
2019-03-22T04:57:32.468Z,25.55
2019-03-22T05:00:36.829Z,24.90
2019-03-22T05:03:41.827Z,23.52
2019-03-22T05:06:46.768Z,23.35
2019-03-22T05:09:51.020Z,21.40
2019-03-22T05:12:57.832Z,19.87
2019-03-22T05:16:02.018Z,18.40
2019-03-22T05:19:08.208Z,19.85
2019-03-22T05:22:14.386Z,19.42
2019-03-22T05:25:19.956Z,20.00
2019-03-22T05:28:27.231Z,18.92
2019-03-22T05:32:09.911Z,18.32
2019-03-22T05:35:13.619Z,19.23
2019-03-22T05:38:17.310Z,19.65
2019-03-22T05:41:21.032Z,18.30
2019-03-22T05:44:24.777Z,17.73
2019-03-22T05:47:28.485Z,17.98
2019-03-22T05:50:32.251Z,18.32
2019-03-22T05:53:36.101Z,18.57
2019-03-22T05:56:39.777Z,17.80
2019-03-22T05:59:43.512Z,17.95
2019-03-22T06:02:47.328Z,18.87
2019-03-22T06:05:51.012Z,18.15
2019-03-22T06:08:54.746Z,17.87
2019-03-22T06:11:58.819Z,17.20
2019-03-22T06:15:02.526Z,18.62
2019-03-22T06:18:07.192Z,19.40
2019-03-22T06:21:10.963Z,17.75
2019-03-22T06:24:14.703Z,16.90
2019-03-22T06:27:18.503Z,17.37
2019-03-22T06:30:22.347Z,16.40
2019-03-22T06:33:26.099Z,16.05
2019-03-22T06:36:29.824Z,15.23
2019-03-22T06:39:34.685Z,14.15
2019-03-22T06:42:38.613Z,14.13
2019-03-22T06:45:42.259Z,14.05
2019-03-22T06:48:46.113Z,13.00
2019-03-22T06:51:49.780Z,13.22
2019-03-22T06:54:53.492Z,13.50
2019-03-22T06:57:57.127Z,13.93
2019-03-22T07:01:01.200Z,11.45
2019-03-22T07:04:04.927Z,12.45
2019-03-22T07:07:09.128Z,13.65
2019-03-22T07:10:12.944Z,13.38
2019-03-22T07:13:16.783Z,12.20
2019-03-22T07:16:20.560Z,13.20
2019-03-22T07:19:24.305Z,12.68
2019-03-22T07:22:27.964Z,13.55
2019-03-22T07:25:31.692Z,12.35
2019-03-22T07:28:35.734Z,12.10
2019-03-22T07:31:39.421Z,12.18
2019-03-22T07:34:43.156Z,12.37
2019-03-22T07:37:47.945Z,13.30
2019-03-22T07:40:54.975Z,12.58
2019-03-22T07:44:02.413Z,12.70
2019-03-22T07:47:12.353Z,12.70
2019-03-22T07:51:07.430Z,12.20
2019-03-22T07:54:19.076Z,12.23
2019-03-22T07:57:30.463Z,13.15
2019-03-22T08:00:34.968Z,11.97
2019-03-22T08:03:39.820Z,12.47
2019-03-22T08:06:44.382Z,13.80
2019-03-22T08:09:51.269Z,14.03
2019-03-22T08:12:56.316Z,12.68
2019-03-22T08:16:00.188Z,13.32
2019-03-22T08:19:04.004Z,13.35
2019-03-22T08:22:07.800Z,13.70
2019-03-22T08:25:12.523Z,14.00
2019-03-22T08:28:16.346Z,13.18
2019-03-22T08:31:20.504Z,13.18
2019-03-22T08:34:24.308Z,12.78
2019-03-22T08:37:28.107Z,14.73
2019-03-22T08:40:31.899Z,15.50
2019-03-22T08:43:35.693Z,14.23
2019-03-22T08:46:39.632Z,15.15
2019-03-22T08:49:43.748Z,15.00
2019-03-22T08:52:47.651Z,15.40
2019-03-22T08:55:52.531Z,14.75
2019-03-22T08:58:56.394Z,15.88
2019-03-22T09:02:00.311Z,16.30
2019-03-22T09:05:04.804Z,15.72
2019-03-22T09:08:08.640Z,13.98
2019-03-22T09:11:12.588Z,13.43
2019-03-22T09:14:16.391Z,13.20
2019-03-22T09:17:20.279Z,13.58
2019-03-22T09:20:24.322Z,13.98
2019-03-22T09:23:29.045Z,12.63
2019-03-22T09:26:32.768Z,13.08
2019-03-22T09:29:36.536Z,14.18
2019-03-22T09:32:40.259Z,13.53
2019-03-22T09:35:47.680Z,13.65
2019-03-22T09:38:51.452Z,12.78
2019-03-22T09:41:55.195Z,13.65
2019-03-22T09:44:58.922Z,12.88
2019-03-22T09:48:02.767Z,12.53
2019-03-22T09:51:08.433Z,12.93
2019-03-22T09:54:12.164Z,12.82
2019-03-22T09:57:16.073Z,12.95
2019-03-22T10:00:30.473Z,12.35
2019-03-22T10:03:34.113Z,12.28
2019-03-22T10:06:37.861Z,14.20
2019-03-22T10:09:41.645Z,13.48
2019-03-22T10:12:45.421Z,15.05
2019-03-22T10:15:49.145Z,13.60
2019-03-22T10:18:52.959Z,13.70
2019-03-22T10:21:56.737Z,14.00
2019-03-22T10:25:00.478Z,14.98
2019-03-22T10:28:04.380Z,13.93
2019-03-22T10:31:08.643Z,14.68
2019-03-22T10:34:12.382Z,14.20
2019-03-22T10:37:16.207Z,14.15
2019-03-22T10:40:19.827Z,15.90
2019-03-22T10:43:23.618Z,16.12
2019-03-22T10:46:27.324Z,14.93
2019-03-22T10:49:32.105Z,15.08
2019-03-22T10:52:35.874Z,14.58
2019-03-22T10:55:39.569Z,15.72
2019-03-22T10:58:43.428Z,14.93
2019-03-22T11:02:02.237Z,15.20
2019-03-22T11:04:52.864Z,16.05
2019-03-22T11:07:56.788Z,17.15
2019-03-22T11:11:01.069Z,15.53
2019-03-22T11:14:05.108Z,16.30
2019-03-22T11:17:09.924Z,14.83
2019-03-22T11:20:14.488Z,16.30
2019-03-22T11:23:18.191Z,15.50
2019-03-22T11:26:21.970Z,16.35
2019-03-22T11:29:25.716Z,15.95
2019-03-22T11:32:29.484Z,17.55
2019-03-22T11:35:33.232Z,16.52
2019-03-22T11:38:37.037Z,17.17
2019-03-22T11:41:40.854Z,16.27
2019-03-22T11:44:44.555Z,15.72
2019-03-22T11:47:48.323Z,15.70
2019-03-22T11:50:52.956Z,16.05
2019-03-22T11:53:56.802Z,17.17
2019-03-22T11:57:01.077Z,17.40
2019-03-22T12:00:08.929Z,15.70
2019-03-22T12:03:12.676Z,15.95
2019-03-22T12:06:16.309Z,17.07
2019-03-22T12:09:20.053Z,16.73
2019-03-22T12:12:23.820Z,17.65
2019-03-22T12:15:27.569Z,17.15
2019-03-22T12:18:31.267Z,16.67
2019-03-22T12:21:34.950Z,18.12
2019-03-22T12:24:38.789Z,15.50
2019-03-22T12:27:42.769Z,17.85
2019-03-22T12:30:46.612Z,17.37
2019-03-22T12:33:50.289Z,17.35
2019-03-22T12:36:53.999Z,16.52
2019-03-22T12:39:57.837Z,16.32
2019-03-22T12:43:01.921Z,17.52
2019-03-22T12:46:05.761Z,17.77
2019-03-22T12:49:09.431Z,15.25
2019-03-22T12:52:13.249Z,15.50
2019-03-22T12:55:18.224Z,15.10
2019-03-22T12:58:23.016Z,15.38
2019-03-22T13:01:27.948Z,16.02
2019-03-22T13:04:32.427Z,16.97
2019-03-22T13:07:36.231Z,17.57
2019-03-22T13:10:40.112Z,16.42
2019-03-22T13:13:43.907Z,17.23
2019-03-22T13:16:47.620Z,17.85
2019-03-22T13:19:52.340Z,18.57
2019-03-22T13:22:57.176Z,17.48
2019-03-22T13:26:00.910Z,17.40
2019-03-22T13:29:04.696Z,16.50
2019-03-22T13:32:08.970Z,17.20
2019-03-22T13:35:12.760Z,14.87
2019-03-22T13:38:16.436Z,17.35
2019-03-22T13:41:20.223Z,16.57
2019-03-22T13:44:23.944Z,16.10
2019-03-22T13:47:27.653Z,17.75
2019-03-22T13:50:31.397Z,16.87
2019-03-22T13:53:35.295Z,16.42
2019-03-22T13:56:38.981Z,16.45
2019-03-22T13:59:42.789Z,17.32
2019-03-22T14:02:46.499Z,17.05
2019-03-22T14:05:50.340Z,16.42
2019-03-22T14:08:54.011Z,17.57
2019-03-22T14:11:57.825Z,17.48
2019-03-22T14:15:01.731Z,16.05
2019-03-22T14:18:05.677Z,17.27
2019-03-22T14:21:09.385Z,17.17
2019-03-22T14:24:13.061Z,17.25
2019-03-22T14:27:16.801Z,16.60
2019-03-22T14:30:21.599Z,15.45
2019-03-22T14:33:25.312Z,17.87
2019-03-22T14:36:29.049Z,16.82
2019-03-22T14:39:32.823Z,16.55
2019-03-22T14:42:36.672Z,15.80
2019-03-22T14:45:40.404Z,16.50
2019-03-22T14:48:44.049Z,17.57
2019-03-22T14:51:47.788Z,17.52
2019-03-22T14:54:51.568Z,16.27
2019-03-22T14:57:55.278Z,18.73
2019-03-22T15:00:59.116Z,17.45
2019-03-22T15:04:02.924Z,17.05
2019-03-22T15:07:06.818Z,16.85
2019-03-22T15:10:11.016Z,17.40
2019-03-22T15:13:15.085Z,16.40
2019-03-22T15:16:38.002Z,16.67
2019-03-22T15:19:59.976Z,16.90
2019-03-22T15:23:21.541Z,16.95
2019-03-22T15:26:49.155Z,17.82
2019-03-22T15:30:16.968Z,17.00
2019-03-22T15:33:40.152Z,17.20
2019-03-22T15:37:12.586Z,17.70
2019-03-22T15:40:17.791Z,16.40
2019-03-22T15:43:21.492Z,17.05
2019-03-22T15:46:25.284Z,16.07
2019-03-22T15:49:29.009Z,16.48
2019-03-22T15:52:32.728Z,15.58
2019-03-22T15:55:36.625Z,14.18
2019-03-22T15:58:40.312Z,16.02
2019-03-22T16:01:44.126Z,16.77
2019-03-22T16:04:47.829Z,15.83
2019-03-22T16:07:51.589Z,15.72
2019-03-22T16:10:55.245Z,16.12
2019-03-22T16:13:59.172Z,17.23
2019-03-22T16:17:02.956Z,16.60
2019-03-22T16:20:08.095Z,17.12
2019-03-22T16:23:11.912Z,17.77
2019-03-22T16:26:15.616Z,17.23
2019-03-22T16:29:19.329Z,17.87
2019-03-22T16:32:23.010Z,18.40
2019-03-22T16:35:26.632Z,16.67
2019-03-22T16:38:30.447Z,17.02
2019-03-22T16:41:34.132Z,17.02
2019-03-22T16:44:37.860Z,18.52
2019-03-22T16:47:41.543Z,56.42
2019-03-22T16:50:45.280Z,18.73
2019-03-22T16:53:48.981Z,20.37
2019-03-22T16:56:52.789Z,17.48
2019-03-22T16:59:56.533Z,17.70
2019-03-22T17:03:00.408Z,16.93
2019-03-22T17:06:04.156Z,15.13
2019-03-22T17:09:07.961Z,18.02
2019-03-22T17:12:11.633Z,17.65
2019-03-22T17:15:15.376Z,18.75
2019-03-22T17:18:19.144Z,18.12
2019-03-22T17:21:22.996Z,18.40
2019-03-22T17:24:26.680Z,18.82
2019-03-22T17:27:30.480Z,18.80
2019-03-22T17:30:34.328Z,20.08
2019-03-22T17:33:38.095Z,29.45
2019-03-22T17:36:41.800Z,20.65
2019-03-22T17:39:45.524Z,22.25
2019-03-22T17:42:49.211Z,27.13
2019-03-22T17:45:52.957Z,22.25
2019-03-22T17:48:56.828Z,21.97
2019-03-22T17:52:00.544Z,20.90
2019-03-22T17:55:04.552Z,21.17
2019-03-22T17:58:08.270Z,31.52
2019-03-22T18:01:12.215Z,21.12
2019-03-22T18:04:23.899Z,21.95
2019-03-22T18:07:21.335Z,20.72
2019-03-22T18:10:25.073Z,23.95
2019-03-22T18:13:28.827Z,22.07
2019-03-22T18:16:32.691Z,25.23
2019-03-22T18:19:36.467Z,37.70
2019-03-22T18:22:40.273Z,27.35
2019-03-22T18:25:44.137Z,23.38
2019-03-22T18:28:47.824Z,22.77
2019-03-22T18:31:52.624Z,24.10
2019-03-22T18:34:56.169Z,21.80
2019-03-22T18:37:59.944Z,21.45
2019-03-22T18:41:03.785Z,23.30
2019-03-22T18:44:07.356Z,22.42
2019-03-22T18:47:11.205Z,21.05
2019-03-22T18:50:14.988Z,21.87
2019-03-22T18:53:18.888Z,27.17
2019-03-22T18:56:22.675Z,22.15
2019-03-22T18:59:26.401Z,21.48
2019-03-22T19:02:30.040Z,23.52
2019-03-22T19:05:33.800Z,22.13
2019-03-22T19:08:37.535Z,23.10
2019-03-22T19:11:41.472Z,23.22
2019-03-22T19:14:45.116Z,23.90
2019-03-22T19:17:48.847Z,24.43
2019-03-22T19:20:52.562Z,24.72
2019-03-22T19:23:56.414Z,24.02
2019-03-22T19:27:00.104Z,26.87
2019-03-22T19:30:04.740Z,30.35
2019-03-22T19:33:08.512Z,29.82
2019-03-22T19:36:12.218Z,29.30
2019-03-22T19:39:16.023Z,29.48
2019-03-22T19:42:19.724Z,27.77
2019-03-22T19:45:23.552Z,27.67
2019-03-22T19:48:27.250Z,28.07
2019-03-22T19:51:31.060Z,27.00
2019-03-22T19:54:34.756Z,25.57
2019-03-22T19:57:38.662Z,25.65
2019-03-22T20:00:42.384Z,25.70
2019-03-22T20:03:46.200Z,25.43
2019-03-22T20:06:49.909Z,27.62
2019-03-22T20:09:53.616Z,26.75
2019-03-22T20:12:57.345Z,27.30
2019-03-22T20:16:01.125Z,28.38
2019-03-22T20:19:04.936Z,26.37
2019-03-22T20:22:08.844Z,26.77
2019-03-22T20:25:12.709Z,30.57
2019-03-22T20:28:16.347Z,29.75
2019-03-22T20:31:20.072Z,30.70
2019-03-22T20:34:23.990Z,31.95
2019-03-22T20:37:27.795Z,31.33
2019-03-22T20:40:31.741Z,29.02
2019-03-22T20:43:35.552Z,28.40
2019-03-22T20:46:39.320Z,28.42
2019-03-22T20:49:43.068Z,29.23
2019-03-22T20:52:46.888Z,30.00
2019-03-22T20:55:50.679Z,29.48
2019-03-22T20:58:54.400Z,30.92
2019-03-22T21:01:58.046Z,29.85
2019-03-22T21:05:02.022Z,24.20
2019-03-22T21:08:05.893Z,29.12
2019-03-22T21:11:09.631Z,28.80
2019-03-22T21:14:13.443Z,29.25
2019-03-22T21:17:17.223Z,28.57
2019-03-22T21:20:20.956Z,29.90
2019-03-22T21:23:24.733Z,27.82
2019-03-22T21:26:28.580Z,27.45
2019-03-22T21:29:32.284Z,27.85
2019-03-22T21:32:44.733Z,26.63
2019-03-22T21:35:41.644Z,26.90
2019-03-22T21:38:45.313Z,28.42
2019-03-22T21:41:49.156Z,28.10
2019-03-22T21:44:52.870Z,26.05
2019-03-22T21:47:56.541Z,25.62
2019-03-22T21:51:00.296Z,26.07
2019-03-22T21:54:03.999Z,26.97
2019-03-22T21:57:07.644Z,26.85
2019-03-22T22:00:11.508Z,25.13
2019-03-22T22:03:15.276Z,26.10
2019-03-22T22:06:19.009Z,26.27
2019-03-22T22:09:22.694Z,25.40
2019-03-22T22:12:26.493Z,25.33
2019-03-22T22:15:51.252Z,26.37
2019-03-22T22:18:54.820Z,25.30
2019-03-22T22:21:58.564Z,25.83
2019-03-22T22:25:02.220Z,24.67
2019-03-22T22:28:06.196Z,25.30
2019-03-22T22:31:09.972Z,38.43
2019-03-22T22:34:13.671Z,23.77
2019-03-22T22:37:17.384Z,26.00
2019-03-22T22:40:21.082Z,25.52
2019-03-22T22:43:24.784Z,24.87
2019-03-22T22:46:28.734Z,24.87
2019-03-22T22:49:32.392Z,22.43
2019-03-22T22:52:36.155Z,23.97
2019-03-22T22:55:39.973Z,23.23
2019-03-22T22:58:43.632Z,20.55
2019-03-22T23:01:47.483Z,25.80
2019-03-22T23:04:51.251Z,21.30
2019-03-22T23:07:54.996Z,20.97
2019-03-22T23:10:58.660Z,21.53
2019-03-22T23:14:02.369Z,22.30
2019-03-22T23:17:07.132Z,21.60
2019-03-22T23:20:11.009Z,22.60
2019-03-22T23:23:14.621Z,22.33
2019-03-22T23:26:18.426Z,23.13
2019-03-22T23:29:22.264Z,28.53
2019-03-22T23:32:26.192Z,29.70
2019-03-22T23:35:30.008Z,31.40
2019-03-22T23:38:33.869Z,32.30
2019-03-22T23:41:37.777Z,38.93
2019-03-22T23:44:41.844Z,32.63
2019-03-22T23:47:45.588Z,28.27
2019-03-22T23:50:49.364Z,28.80
2019-03-22T23:53:53.028Z,28.83
2019-03-22T23:56:56.823Z,34.63
